createdAt,value
2023-03-01T00:02:07.007Z,54.28
2023-03-01T00:03:40.314Z,50.87
2023-03-01T00:05:13.599Z,46.68
2023-03-01T00:06:35.383Z,48.21
2023-03-01T00:08:11.434Z,50.10
2023-03-01T00:09:52.907Z,49.91
2023-03-01T00:11:29.566Z,50.62
2023-03-01T00:12:51.362Z,44.95
2023-03-01T00:14:24.816Z,47.42
2023-03-01T00:15:54.069Z,46.51
2023-03-01T00:17:40.011Z,52.37
2023-03-01T00:19:13.806Z,62.43
2023-03-01T00:20:59.048Z,71.39
2023-03-01T00:22:21.076Z,69.15
2023-03-01T00:24:00.598Z,59.02
2023-03-01T00:25:25.513Z,50.92
2023-03-01T00:26:47.724Z,45.76
2023-03-01T00:28:23.895Z,48.26
2023-03-01T00:29:47.700Z,45.80
2023-03-01T00:31:21.792Z,47.96
2023-03-01T00:33:11.986Z,45.17
2023-03-01T00:35:05.836Z,41.51
2023-03-01T00:36:39.734Z,43.53
2023-03-01T00:38:04.263Z,42.00
2023-03-01T00:39:45.512Z,40.38
2023-03-01T00:41:41.104Z,37.38
2023-03-01T00:43:11.444Z,38.01
2023-03-01T00:44:47.262Z,40.84
2023-03-01T00:46:21.647Z,41.89
2023-03-01T00:48:08.431Z,40.09
2023-03-01T00:49:41.714Z,38.60
2023-03-01T00:51:27.110Z,39.58
2023-03-01T00:53:00.606Z,39.53
2023-03-01T00:54:22.648Z,39.99
2023-03-01T00:55:55.798Z,38.51
2023-03-01T00:57:37.015Z,38.89
2023-03-01T00:59:10.808Z,40.26
2023-03-01T01:00:55.692Z,37.84
2023-03-01T01:02:29.870Z,37.16
2023-03-01T01:04:05.081Z,37.95
2023-03-01T01:05:41.934Z,37.79
2023-03-01T01:07:15.240Z,37.67
2023-03-01T01:09:00.510Z,35.59
2023-03-01T01:10:34.226Z,37.88
2023-03-01T01:12:15.567Z,36.60
2023-03-01T01:13:51.462Z,36.25
2023-03-01T01:15:25.816Z,33.56
2023-03-01T01:16:59.687Z,33.37
2023-03-01T01:18:22.366Z,33.78
2023-03-01T01:19:58.380Z,36.15
2023-03-01T01:21:45.212Z,32.05
2023-03-01T01:23:22.408Z,32.99
2023-03-01T01:25:03.668Z,33.71
2023-03-01T01:26:37.331Z,33.08
2023-03-01T01:28:11.148Z,33.28
2023-03-01T01:29:35.173Z,33.66
2023-03-01T01:31:04.555Z,33.11
2023-03-01T01:32:28.954Z,31.17
2023-03-01T01:33:54.952Z,30.41
2023-03-01T01:35:24.273Z,30.33
2023-03-01T01:37:08.960Z,30.63
2023-03-01T01:38:38.696Z,30.94
2023-03-01T01:40:12.321Z,30.16
2023-03-01T01:42:06.981Z,30.20
2023-03-01T01:43:48.686Z,30.12
2023-03-01T01:45:34.647Z,29.40
2023-03-01T01:47:19.972Z,30.04
2023-03-01T01:49:06.332Z,30.14
2023-03-01T01:50:57.515Z,31.01
2023-03-01T01:52:39.532Z,31.66
2023-03-01T01:54:25.007Z,30.74
2023-03-01T01:55:58.912Z,31.83
2023-03-01T01:57:39.138Z,32.31
2023-03-01T01:59:25.640Z,34.83
2023-03-01T02:01:11.152Z,34.18
2023-03-01T02:03:02.494Z,31.44
2023-03-01T02:04:49.864Z,34.19
2023-03-01T02:06:35.531Z,33.67
2023-03-01T02:08:21.018Z,33.25
2023-03-01T02:09:59.432Z,35.39
2023-03-01T02:11:32.994Z,33.21
2023-03-01T02:13:18.807Z,33.32
2023-03-01T02:15:06.266Z,32.61
2023-03-01T02:16:52.238Z,34.07
2023-03-01T02:18:28.872Z,34.36
2023-03-01T02:20:14.784Z,35.38
2023-03-01T02:22:05.857Z,34.48
2023-03-01T02:23:57.268Z,35.04
2023-03-01T02:25:42.979Z,36.73
2023-03-01T02:27:24.365Z,40.59
2023-03-01T02:29:09.420Z,43.04
2023-03-01T02:31:04.078Z,42.10
2023-03-01T02:32:43.075Z,43.44
2023-03-01T02:34:37.330Z,43.46
2023-03-01T02:36:23.097Z,43.47
2023-03-01T02:38:09.756Z,45.17
2023-03-01T02:40:03.167Z,42.71
2023-03-01T02:41:58.062Z,41.39
2023-03-01T02:43:39.748Z,44.50
2023-03-01T02:45:20.823Z,47.03
2023-03-01T02:46:56.745Z,48.00
2023-03-01T02:48:50.674Z,51.93
2023-03-01T02:50:24.932Z,47.54
2023-03-01T02:52:10.036Z,46.96
2023-03-01T02:53:56.562Z,45.18
2023-03-01T02:55:29.763Z,44.17
2023-03-01T02:57:11.101Z,41.56
2023-03-01T02:58:56.971Z,40.64
2023-03-01T03:00:51.979Z,42.91
2023-03-01T03:02:45.957Z,44.49
2023-03-01T03:04:45.057Z,45.07
2023-03-01T03:06:31.004Z,44.35
2023-03-01T03:08:17.167Z,46.62
2023-03-01T03:09:51.064Z,44.58
2023-03-01T03:11:37.725Z,46.34
2023-03-01T03:13:12.131Z,45.85
2023-03-01T03:14:52.783Z,46.54
2023-03-01T03:16:48.980Z,43.69
2023-03-01T03:18:43.939Z,45.32
2023-03-01T03:20:21.066Z,46.64
2023-03-01T03:22:07.148Z,46.97
2023-03-01T03:23:30.925Z,45.32
2023-03-01T03:25:16.860Z,43.85
2023-03-01T03:27:12.952Z,42.88
2023-03-01T03:28:58.962Z,41.41
2023-03-01T03:30:33.648Z,41.05
2023-03-01T03:32:14.622Z,40.77
2023-03-01T03:33:54.370Z,38.76
2023-03-01T03:35:27.746Z,37.81
2023-03-01T03:37:21.456Z,39.18
2023-03-01T03:39:02.910Z,41.26
2023-03-01T03:40:49.259Z,39.75
2023-03-01T03:42:23.996Z,39.82
2023-03-01T03:44:09.641Z,37.89
2023-03-01T03:46:03.243Z,37.26
2023-03-01T03:47:25.272Z,36.44
2023-03-01T03:49:10.967Z,37.25
2023-03-01T03:51:00.465Z,37.77
2023-03-01T03:52:48.013Z,37.67
2023-03-01T03:54:42.927Z,39.26
2023-03-01T03:56:28.970Z,39.02
2023-03-01T03:58:10.528Z,38.81
2023-03-01T03:59:44.151Z,38.65
2023-03-01T04:01:29.902Z,36.98
2023-03-01T04:03:17.880Z,39.01
2023-03-01T04:05:06.930Z,38.31
2023-03-01T04:06:52.921Z,36.53
2023-03-01T04:08:27.779Z,36.49
2023-03-01T04:10:09.547Z,35.17
2023-03-01T04:11:35.629Z,35.64
2023-03-01T04:13:21.554Z,35.97
2023-03-01T04:14:54.812Z,35.57
2023-03-01T04:16:44.429Z,36.43
2023-03-01T04:18:39.907Z,35.82
2023-03-01T04:20:25.476Z,35.83
2023-03-01T04:22:10.364Z,34.83
2023-03-01T04:23:57.022Z,35.57
2023-03-01T04:25:42.823Z,39.90
2023-03-01T04:27:16.590Z,39.56
2023-03-01T04:28:54.538Z,40.73
2023-03-01T04:30:41.265Z,41.33
2023-03-01T04:32:29.473Z,48.85
2023-03-01T04:34:02.252Z,66.63
2023-03-01T04:35:48.566Z,92.26
2023-03-01T04:37:37.380Z,90.88
2023-03-01T04:39:14.068Z,97.92
2023-03-01T04:41:05.033Z,162.85
2023-03-01T04:42:50.554Z,169.87
2023-03-01T04:44:26.641Z,104.87
2023-03-01T04:46:12.803Z,104.17
2023-03-01T04:47:48.016Z,116.28
2023-03-01T04:49:34.103Z,109.20
2023-03-01T04:51:19.293Z,74.86
2023-03-01T04:53:05.305Z,77.73
2023-03-01T04:54:44.688Z,82.62
2023-03-01T04:56:33.022Z,88.39
2023-03-01T04:58:18.244Z,189.99
2023-03-01T05:00:11.696Z,136.27
2023-03-01T05:01:46.373Z,76.04
2023-03-01T05:03:32.920Z,64.41
2023-03-01T05:05:05.802Z,60.48
2023-03-01T05:06:54.170Z,56.03
2023-03-01T05:08:42.518Z,198.48
2023-03-01T05:10:17.216Z,97.52
2023-03-01T05:12:10.751Z,93.43
2023-03-01T05:13:58.497Z,120.25
2023-03-01T05:15:52.991Z,86.37
2023-03-01T05:17:50.956Z,137.23
2023-03-01T05:19:45.942Z,106.47
2023-03-01T05:23:39.279Z,48.76
2023-03-01T05:25:15.002Z,48.22
2023-03-01T05:27:00.010Z,46.92
2023-03-01T05:28:35.675Z,54.31
2023-03-01T05:30:27.063Z,56.67
2023-03-01T05:32:13.537Z,121.24
2023-03-01T05:33:56.931Z,158.84
2023-03-01T05:35:50.707Z,148.58
2023-03-01T05:37:24.366Z,246.61
2023-03-01T05:38:48.391Z,118.18
2023-03-01T05:40:34.725Z,88.28
2023-03-01T05:42:20.994Z,84.39
2023-03-01T05:43:54.968Z,92.72
2023-03-01T05:45:49.539Z,94.58
2023-03-01T05:47:23.460Z,83.70
2023-03-01T05:49:08.935Z,96.70
2023-03-01T05:50:54.430Z,77.87
2023-03-01T05:52:42.005Z,89.62
2023-03-01T05:54:27.830Z,140.41
2023-03-01T05:56:03.908Z,164.92
2023-03-01T05:57:33.531Z,120.22
2023-03-01T05:59:07.315Z,81.72
2023-03-01T06:00:39.000Z,67.99
2023-03-01T06:02:13.335Z,63.45
2023-03-01T06:03:58.644Z,61.27
2023-03-01T06:05:49.035Z,48.66
2023-03-01T06:07:22.537Z,48.25
2023-03-01T06:09:09.308Z,49.80
2023-03-01T06:10:56.708Z,66.40
2023-03-01T06:12:43.973Z,79.43
2023-03-01T06:14:30.654Z,107.68
2023-03-01T06:16:03.856Z,76.75
2023-03-01T06:17:28.285Z,76.79
2023-03-01T06:19:13.827Z,112.93
2023-03-01T06:21:07.044Z,80.74
2023-03-01T06:22:53.355Z,85.21
2023-03-01T06:24:48.899Z,91.67
2023-03-01T06:26:44.930Z,109.05
2023-03-01T06:28:20.097Z,90.05
2023-03-01T06:30:06.096Z,62.10
2023-03-01T06:31:47.592Z,46.52
2023-03-01T06:33:24.456Z,49.66
2023-03-01T06:37:04.984Z,56.19
2023-03-01T06:38:50.387Z,55.90
2023-03-01T06:40:44.336Z,56.46
2023-03-01T06:42:17.898Z,57.83
2023-03-01T06:44:04.762Z,52.57
2023-03-01T06:45:59.902Z,50.82
2023-03-01T06:47:30.150Z,51.17
2023-03-01T06:49:17.248Z,52.24
2023-03-01T06:50:58.162Z,49.49
2023-03-01T06:52:40.932Z,50.92
2023-03-01T06:54:25.914Z,51.04
2023-03-01T06:56:10.922Z,46.78
2023-03-01T06:57:34.975Z,51.02
2023-03-01T06:59:08.396Z,51.24
2023-03-01T07:00:55.872Z,51.04
2023-03-01T07:02:29.581Z,52.29
2023-03-01T07:04:03.354Z,55.88
2023-03-01T07:05:50.196Z,54.54
2023-03-01T07:07:38.892Z,55.78
2023-03-01T07:09:24.143Z,53.10
2023-03-01T07:11:00.245Z,53.49
2023-03-01T07:12:33.822Z,50.23
2023-03-01T07:14:09.269Z,51.37
2023-03-01T07:15:31.421Z,52.29
2023-03-01T07:17:07.576Z,51.94
2023-03-01T07:18:41.240Z,51.93
2023-03-01T07:20:35.870Z,49.28
2023-03-01T07:22:09.860Z,51.94
2023-03-01T07:23:43.439Z,51.58
2023-03-01T07:25:16.926Z,49.93
2023-03-01T07:26:52.989Z,50.97
2023-03-01T07:28:48.051Z,51.03
2023-03-01T07:32:42.685Z,48.69
2023-03-01T07:34:29.098Z,45.38
2023-03-01T07:36:04.547Z,47.01
2023-03-01T07:37:26.925Z,47.38
2023-03-01T07:39:12.017Z,48.55
2023-03-01T07:40:59.601Z,48.08
2023-03-01T07:42:52.963Z,47.51
2023-03-01T07:44:26.641Z,43.27
2023-03-01T07:46:11.317Z,42.77
2023-03-01T07:48:00.590Z,42.04
2023-03-01T07:49:46.960Z,42.29
2023-03-01T07:51:41.335Z,42.74
2023-03-01T07:53:17.207Z,40.61
2023-03-01T07:54:51.696Z,41.44
2023-03-01T07:56:25.430Z,42.54
2023-03-01T07:57:47.244Z,41.12
2023-03-01T07:59:32.960Z,43.76
2023-03-01T08:01:19.016Z,49.40
2023-03-01T08:03:04.369Z,46.16
2023-03-01T08:04:57.088Z,42.78
2023-03-01T08:06:20.293Z,37.50
2023-03-01T08:08:05.865Z,37.35
2023-03-01T08:09:39.174Z,37.35
2023-03-01T08:11:25.306Z,36.20
2023-03-01T08:13:00.166Z,35.43
2023-03-01T08:14:50.854Z,34.53
2023-03-01T08:16:25.314Z,32.51
2023-03-01T08:18:11.304Z,29.38
2023-03-01T08:19:51.761Z,33.78
2023-03-01T08:21:45.454Z,36.77
2023-03-01T08:23:19.131Z,39.96
2023-03-01T08:25:05.038Z,37.88
2023-03-01T08:26:54.640Z,31.20
2023-03-01T08:28:49.877Z,29.28
2023-03-01T08:30:34.859Z,28.55
2023-03-01T08:32:11.527Z,29.00
2023-03-01T08:34:05.006Z,29.33
2023-03-01T08:35:58.189Z,29.43
2023-03-01T08:37:45.708Z,30.75
2023-03-01T08:39:34.193Z,27.09
2023-03-01T08:41:08.801Z,26.62
2023-03-01T08:43:02.897Z,24.61
2023-03-01T08:44:53.728Z,23.80
2023-03-01T08:46:41.486Z,25.46
2023-03-01T08:48:27.872Z,24.50
2023-03-01T08:50:09.518Z,22.71
2023-03-01T08:51:55.982Z,22.12
2023-03-01T08:53:31.916Z,21.53
2023-03-01T08:55:05.586Z,22.80
2023-03-01T08:56:39.175Z,21.91
2023-03-01T08:58:12.717Z,21.69
2023-03-01T09:00:07.875Z,24.32
2023-03-01T09:01:48.817Z,24.74
2023-03-01T09:03:34.678Z,23.46
2023-03-01T09:05:08.385Z,25.39
2023-03-01T09:06:43.089Z,19.71
2023-03-01T09:08:18.611Z,19.28
2023-03-01T09:10:06.663Z,18.52
2023-03-01T09:12:00.320Z,21.02
2023-03-01T09:13:35.589Z,20.34
2023-03-01T09:15:21.032Z,20.81
2023-03-01T09:17:06.567Z,20.32
2023-03-01T09:18:52.239Z,19.68
2023-03-01T09:20:38.452Z,17.88
2023-03-01T09:22:24.340Z,18.15
2023-03-01T09:24:00.101Z,18.83
2023-03-01T09:25:41.519Z,18.85
2023-03-01T09:27:27.486Z,19.20
2023-03-01T09:29:15.094Z,18.40
2023-03-01T09:30:50.464Z,21.52
2023-03-01T09:32:36.953Z,18.94
2023-03-01T09:33:58.906Z,17.76
2023-03-01T09:35:21.122Z,17.15
2023-03-01T09:36:54.463Z,17.83
2023-03-01T09:38:30.479Z,41.13
2023-03-01T09:40:17.789Z,27.65
2023-03-01T09:42:05.453Z,19.47
2023-03-01T09:43:39.656Z,17.53
2023-03-01T09:45:27.376Z,17.21
2023-03-01T09:47:12.585Z,17.98
2023-03-01T09:49:06.868Z,17.31
2023-03-01T09:50:59.158Z,14.11
2023-03-01T09:52:53.879Z,14.26
2023-03-01T09:54:40.454Z,16.62
2023-03-01T09:56:34.845Z,15.57
2023-03-01T09:58:07.842Z,16.06
2023-03-01T09:59:44.225Z,16.37
2023-03-01T10:01:38.856Z,17.16
2023-03-01T10:03:23.993Z,17.57
2023-03-01T10:05:00.281Z,15.82
2023-03-01T10:06:35.634Z,15.80
2023-03-01T10:08:16.180Z,16.10
2023-03-01T10:10:01.653Z,16.28
2023-03-01T10:11:56.126Z,16.50
2023-03-01T10:13:33.453Z,16.37
2023-03-01T10:15:14.320Z,16.09
2023-03-01T10:17:08.030Z,18.56
2023-03-01T10:19:02.902Z,18.80
2023-03-01T10:20:43.887Z,19.74
2023-03-01T10:22:25.232Z,20.70
2023-03-01T10:24:01.748Z,20.13
2023-03-01T10:25:35.582Z,20.85
2023-03-01T10:27:10.281Z,19.36
2023-03-01T10:28:32.532Z,20.13
2023-03-01T10:30:18.031Z,21.17
2023-03-01T10:31:53.499Z,21.78
2023-03-01T10:33:26.723Z,23.09
2023-03-01T10:35:00.428Z,21.83
2023-03-01T10:36:22.517Z,21.14
2023-03-01T10:37:47.133Z,21.84
2023-03-01T10:39:20.804Z,22.12
2023-03-01T10:40:45.008Z,21.91
2023-03-01T10:42:26.616Z,20.97
2023-03-01T10:44:11.613Z,21.11
2023-03-01T10:45:33.927Z,20.78
2023-03-01T10:46:57.989Z,20.57
2023-03-01T10:48:43.460Z,19.29
2023-03-01T10:50:24.465Z,20.92
2023-03-01T10:52:05.063Z,14.38
2023-03-01T10:53:34.746Z,16.28
2023-03-01T10:55:08.401Z,17.78
2023-03-01T10:56:55.594Z,16.26
2023-03-01T10:58:25.440Z,14.19
2023-03-01T10:59:47.245Z,12.67
2023-03-01T11:01:33.699Z,10.98
2023-03-01T11:03:09.397Z,11.43
2023-03-01T11:04:52.871Z,11.36
2023-03-01T11:06:22.682Z,10.55
2023-03-01T11:08:08.056Z,10.10
2023-03-01T11:09:53.529Z,10.76
2023-03-01T11:11:27.085Z,11.57
2023-03-01T11:12:48.432Z,13.48
2023-03-01T11:14:27.199Z,13.02
2023-03-01T11:15:49.482Z,11.07
2023-03-01T11:17:54.583Z,11.19
2023-03-01T11:19:54.202Z,12.96
2023-03-01T11:21:43.832Z,11.93
2023-03-01T11:23:07.500Z,11.52
2023-03-01T11:24:43.190Z,11.18
2023-03-01T11:26:16.927Z,11.54
2023-03-01T11:28:08.809Z,10.17
2023-03-01T11:30:02.690Z,10.91
2023-03-01T11:31:57.154Z,10.45
2023-03-01T11:33:34.347Z,9.02
2023-03-01T11:35:08.664Z,11.18
2023-03-01T11:36:42.779Z,12.35
2023-03-01T11:38:16.429Z,13.50
2023-03-01T11:39:50.321Z,12.92
2023-03-01T11:41:36.387Z,12.97
2023-03-01T11:43:10.658Z,14.19
2023-03-01T11:44:44.430Z,13.11
2023-03-01T11:46:38.124Z,12.31
2023-03-01T11:48:48.908Z,12.64
2023-03-01T11:50:44.889Z,13.14
2023-03-01T11:52:30.610Z,12.64
2023-03-01T11:53:52.604Z,12.53
2023-03-01T11:55:37.845Z,11.75
2023-03-01T11:57:26.935Z,12.21
2023-03-01T11:59:02.050Z,11.83
2023-03-01T12:00:56.829Z,10.98
2023-03-01T12:02:27.053Z,11.30
2023-03-01T12:04:14.943Z,12.76
2023-03-01T12:06:02.201Z,11.61
2023-03-01T12:07:47.838Z,11.39
2023-03-01T12:09:21.359Z,19.84
2023-03-01T12:10:51.042Z,18.06
2023-03-01T12:12:20.444Z,16.13
2023-03-01T12:13:53.832Z,17.84
2023-03-01T12:15:27.594Z,16.46
2023-03-01T12:17:01.199Z,13.63
2023-03-01T12:18:47.064Z,11.97
2023-03-01T12:20:31.781Z,12.92
2023-03-01T12:22:12.298Z,12.39
2023-03-01T12:23:57.885Z,12.63
2023-03-01T12:25:43.083Z,12.39
2023-03-01T12:27:36.971Z,13.77
2023-03-01T12:29:08.501Z,24.13
2023-03-01T12:30:30.600Z,20.43
2023-03-01T12:31:54.790Z,19.61
2023-03-01T12:33:40.425Z,12.62
2023-03-01T12:35:25.293Z,14.45
2023-03-01T12:37:10.306Z,13.32
2023-03-01T12:38:52.413Z,11.77
2023-03-01T12:40:38.008Z,11.44
2023-03-01T12:42:14.142Z,11.16
2023-03-01T12:43:36.686Z,10.63
2023-03-01T12:45:12.548Z,10.95
2023-03-01T12:46:46.874Z,13.14
2023-03-01T12:48:20.011Z,14.75
2023-03-01T12:50:01.517Z,13.43
2023-03-01T12:51:52.624Z,11.23
2023-03-01T12:53:16.622Z,14.52
2023-03-01T12:55:09.963Z,14.03
2023-03-01T12:56:45.248Z,12.46
2023-03-01T12:58:49.111Z,15.48
2023-03-01T13:00:19.597Z,12.01
2023-03-01T13:02:05.009Z,11.89
2023-03-01T13:03:49.788Z,10.85
2023-03-01T13:05:43.366Z,11.41
2023-03-01T13:07:28.427Z,12.48
2023-03-01T13:09:13.665Z,16.95
2023-03-01T13:10:50.310Z,10.50
2023-03-01T13:12:24.507Z,15.59
2023-03-01T13:14:09.310Z,12.40
2023-03-01T13:16:03.893Z,11.47
2023-03-01T13:17:58.872Z,13.64
2023-03-01T13:19:40.826Z,14.98
2023-03-01T13:21:14.062Z,10.33
2023-03-01T13:22:49.779Z,10.56
2023-03-01T13:24:47.446Z,13.25
2023-03-01T13:26:28.996Z,12.43
2023-03-01T13:27:53.246Z,11.82
2023-03-01T13:29:26.953Z,14.40
2023-03-01T13:31:01.281Z,12.87
2023-03-01T13:32:52.019Z,14.12
2023-03-01T13:34:36.852Z,13.48
2023-03-01T13:36:23.252Z,9.75
2023-03-01T13:38:05.959Z,10.84
2023-03-01T13:39:53.093Z,14.02
2023-03-01T13:41:26.799Z,10.09
2023-03-01T13:43:11.472Z,8.91
2023-03-01T13:44:54.848Z,9.67
2023-03-01T13:46:24.587Z,9.65
2023-03-01T13:48:07.054Z,10.35
2023-03-01T13:49:51.987Z,10.35
2023-03-01T13:51:27.817Z,9.66
2023-03-01T13:53:00.949Z,9.50
2023-03-01T13:54:34.673Z,9.05
2023-03-01T13:56:07.885Z,9.32
2023-03-01T13:57:30.038Z,7.98
2023-03-01T13:59:03.252Z,7.95
2023-03-01T14:00:46.077Z,8.46
2023-03-01T14:02:19.167Z,9.35
2023-03-01T14:03:54.924Z,9.33
2023-03-01T14:05:29.874Z,8.48
2023-03-01T14:07:14.981Z,8.40
2023-03-01T14:09:04.465Z,7.76
2023-03-01T14:10:26.763Z,8.54
2023-03-01T14:12:11.390Z,9.17
2023-03-01T14:15:33.562Z,10.18
2023-03-01T14:16:59.982Z,10.55
2023-03-01T14:18:52.618Z,13.66
2023-03-01T14:20:26.722Z,10.49
2023-03-01T14:22:00.558Z,11.05
2023-03-01T14:23:36.730Z,10.17
2023-03-01T14:25:09.906Z,10.34
2023-03-01T14:26:55.377Z,10.50
2023-03-01T14:28:28.766Z,10.30
2023-03-01T14:30:04.255Z,9.86
2023-03-01T14:31:54.960Z,11.17
2023-03-01T14:35:49.979Z,9.81
2023-03-01T14:37:25.625Z,10.29
2023-03-01T14:39:06.995Z,8.51
2023-03-01T14:40:51.271Z,10.05
2023-03-01T14:42:38.755Z,10.56
2023-03-01T14:44:23.795Z,12.69
2023-03-01T14:46:09.396Z,11.46
2023-03-01T14:47:44.409Z,9.65
2023-03-01T14:49:36.537Z,11.00
2023-03-01T14:51:09.599Z,10.12
2023-03-01T14:52:54.507Z,8.93
2023-03-01T14:54:49.247Z,9.45
2023-03-01T14:56:34.453Z,8.39
2023-03-01T14:57:55.926Z,10.23
2023-03-01T14:59:31.660Z,9.69
2023-03-01T15:01:05.005Z,9.44
2023-03-01T15:02:58.573Z,14.71
2023-03-01T15:04:44.158Z,12.68
2023-03-01T15:06:30.628Z,12.24
2023-03-01T15:08:15.984Z,10.95
2023-03-01T15:09:40.643Z,10.31
2023-03-01T15:11:33.920Z,9.87
2023-03-01T15:13:07.366Z,9.56
2023-03-01T15:15:02.690Z,10.63
2023-03-01T15:16:45.620Z,10.69
2023-03-01T15:18:09.782Z,13.48
2023-03-01T15:19:55.507Z,14.40
2023-03-01T15:21:20.004Z,15.57
2023-03-01T15:23:04.203Z,22.63
2023-03-01T15:24:38.765Z,17.04
2023-03-01T15:26:23.903Z,15.75
2023-03-01T15:27:48.223Z,13.57
2023-03-01T15:29:21.708Z,13.49
2023-03-01T15:30:56.951Z,14.13
2023-03-01T15:32:26.635Z,14.51
2023-03-01T15:34:05.443Z,16.54
2023-03-01T15:35:39.672Z,13.63
2023-03-01T15:37:12.631Z,12.38
2023-03-01T15:38:55.845Z,13.00
2023-03-01T15:40:32.297Z,14.33
2023-03-01T15:42:17.747Z,12.39
2023-03-01T15:43:58.955Z,12.32
2023-03-01T15:45:43.830Z,13.32
2023-03-01T15:47:17.507Z,13.93
2023-03-01T15:49:02.600Z,14.65
2023-03-01T15:50:57.878Z,15.95
2023-03-01T15:52:43.362Z,14.67
2023-03-01T15:54:07.539Z,21.91
2023-03-01T15:55:46.412Z,22.09
2023-03-01T15:57:32.809Z,21.47
2023-03-01T15:59:20.813Z,20.63
2023-03-01T16:01:02.138Z,17.62
2023-03-01T16:02:31.972Z,20.65
2023-03-01T16:04:17.269Z,20.69
2023-03-01T16:06:03.860Z,23.95
2023-03-01T16:07:33.799Z,29.57
2023-03-01T16:09:18.807Z,27.13
2023-03-01T16:11:04.257Z,24.53
2023-03-01T16:12:58.363Z,21.90
2023-03-01T16:14:32.233Z,19.42
2023-03-01T16:15:56.332Z,27.26
2023-03-01T16:17:38.858Z,21.58
2023-03-01T16:19:12.080Z,23.32
2023-03-01T16:20:49.208Z,19.45
2023-03-01T16:22:15.504Z,20.59
2023-03-01T16:23:45.407Z,19.36
2023-03-01T16:25:18.880Z,20.16
2023-03-01T16:26:43.060Z,20.18
2023-03-01T16:28:16.872Z,20.12
2023-03-01T16:30:03.768Z,19.21
2023-03-01T16:31:39.960Z,18.77
2023-03-01T16:33:28.051Z,19.54
2023-03-01T16:35:10.044Z,20.28
2023-03-01T16:36:44.039Z,21.40
2023-03-01T16:38:19.722Z,20.93
2023-03-01T16:39:53.892Z,21.70
2023-03-01T16:41:15.552Z,21.82
2023-03-01T16:42:39.481Z,23.76
2023-03-01T16:44:26.131Z,23.39
2023-03-01T16:46:11.610Z,23.24
2023-03-01T16:47:36.270Z,24.40
2023-03-01T16:49:19.445Z,24.09
2023-03-01T16:51:04.909Z,22.78
2023-03-01T16:55:10.912Z,24.85
2023-03-01T16:56:46.641Z,25.96
2023-03-01T16:58:12.948Z,25.84
2023-03-01T16:59:55.872Z,27.05
2023-03-01T17:01:48.714Z,28.24
2023-03-01T17:03:22.460Z,29.50
2023-03-01T17:04:44.436Z,29.39
2023-03-01T17:06:30.000Z,31.21
2023-03-01T17:08:05.297Z,30.19
2023-03-01T17:09:37.128Z,27.90
2023-03-01T17:11:19.168Z,29.18
2023-03-01T17:12:55.305Z,28.91
2023-03-01T17:14:31.372Z,31.35
2023-03-01T17:16:17.078Z,32.50
2023-03-01T17:20:04.510Z,30.00
2023-03-01T17:21:27.062Z,35.57
2023-03-01T17:22:48.796Z,32.89
2023-03-01T17:24:10.573Z,32.91
2023-03-01T17:25:46.480Z,34.84
2023-03-01T17:27:19.863Z,33.80
2023-03-01T17:28:55.994Z,34.84
2023-03-01T17:30:50.905Z,40.96
2023-03-01T17:32:25.477Z,50.36
2023-03-01T17:34:09.902Z,54.94
2023-03-01T17:36:00.919Z,87.39
2023-03-01T17:37:49.228Z,59.90
2023-03-01T17:39:43.918Z,63.05
2023-03-01T17:41:19.146Z,72.95
2023-03-01T17:42:52.531Z,83.54
2023-03-01T17:44:17.677Z,111.07
2023-03-01T17:46:00.912Z,97.85
2023-03-01T17:47:46.585Z,127.91
2023-03-01T17:49:28.396Z,120.12
2023-03-01T17:51:01.894Z,136.44
2023-03-01T17:52:56.884Z,126.18
2023-03-01T17:54:42.345Z,146.73
2023-03-01T17:56:16.301Z,137.99
2023-03-01T17:57:51.618Z,145.87
2023-03-01T17:59:37.146Z,120.45
2023-03-01T18:01:21.917Z,107.91
2023-03-01T18:02:55.936Z,114.98
2023-03-01T18:04:32.578Z,89.66
2023-03-01T18:06:17.650Z,111.21
2023-03-01T18:07:51.540Z,91.45
2023-03-01T18:09:25.225Z,89.95
2023-03-01T18:10:58.948Z,110.61
2023-03-01T18:12:21.582Z,100.23
2023-03-01T18:13:55.108Z,109.53
2023-03-01T18:15:30.828Z,85.42
2023-03-01T18:17:17.839Z,91.40
2023-03-01T18:18:51.621Z,88.68
2023-03-01T18:20:38.216Z,81.15
2023-03-01T18:22:11.436Z,87.41
2023-03-01T18:23:35.822Z,86.16
2023-03-01T18:24:57.566Z,84.77
2023-03-01T18:26:34.949Z,79.79
2023-03-01T18:28:01.651Z,76.14
2023-03-01T18:29:46.947Z,74.32
2023-03-01T18:31:40.393Z,73.34
2023-03-01T18:33:25.260Z,70.76
2023-03-01T18:35:10.444Z,71.68
2023-03-01T18:37:08.689Z,68.90
2023-03-01T18:38:45.003Z,65.80
2023-03-01T18:40:18.431Z,73.05
2023-03-01T18:42:04.271Z,63.09
2023-03-01T18:43:41.003Z,59.80
2023-03-01T18:45:27.065Z,61.33
2023-03-01T18:47:08.506Z,60.84
2023-03-01T18:48:54.264Z,61.44
2023-03-01T18:50:29.963Z,60.65
2023-03-01T18:52:05.548Z,60.33
2023-03-01T18:53:51.309Z,63.43
2023-03-01T18:55:45.847Z,65.63
2023-03-01T18:57:19.134Z,71.14
2023-03-01T18:59:03.976Z,61.95
2023-03-01T19:00:51.962Z,59.89
2023-03-01T19:02:46.033Z,61.20
2023-03-01T19:04:20.413Z,62.85
2023-03-01T19:06:03.876Z,64.34
2023-03-01T19:07:57.580Z,65.98
2023-03-01T19:09:43.908Z,67.83
2023-03-01T19:11:24.331Z,71.39
2023-03-01T19:12:57.787Z,80.73
2023-03-01T19:14:52.878Z,80.04
2023-03-01T19:16:29.720Z,83.76
2023-03-01T19:18:04.485Z,85.62
2023-03-01T19:19:38.448Z,92.55
2023-03-01T19:21:14.219Z,88.47
2023-03-01T19:22:47.611Z,85.25
2023-03-01T19:24:21.283Z,83.63
2023-03-01T19:26:06.560Z,84.09
2023-03-01T19:28:01.868Z,80.48
2023-03-01T19:29:43.620Z,76.72
2023-03-01T19:31:28.514Z,74.11
2023-03-01T19:33:03.118Z,75.34
2023-03-01T19:34:47.299Z,72.91
2023-03-01T19:36:33.638Z,71.02
2023-03-01T19:38:09.952Z,73.38
2023-03-01T19:39:55.044Z,72.67
2023-03-01T19:41:31.141Z,73.57
2023-03-01T19:43:04.992Z,73.91
2023-03-01T19:44:39.642Z,94.06
2023-03-01T19:46:15.494Z,104.92
2023-03-01T19:48:00.857Z,155.14
2023-03-01T19:49:27.766Z,164.28
2023-03-01T19:51:03.980Z,158.62
2023-03-01T19:52:40.947Z,158.13
2023-03-01T19:54:26.697Z,143.49
2023-03-01T19:56:01.040Z,130.82
2023-03-01T19:59:00.615Z,135.26
2023-03-01T20:00:46.731Z,120.63
2023-03-01T20:02:20.452Z,110.74
2023-03-01T20:04:02.174Z,107.39
2023-03-01T20:05:56.848Z,90.35
2023-03-01T20:07:42.656Z,86.78
2023-03-01T20:09:29.004Z,79.87
2023-03-01T20:11:14.227Z,68.00
2023-03-01T20:12:47.554Z,72.06
2023-03-01T20:14:24.041Z,117.84
2023-03-01T20:16:09.970Z,91.10
2023-03-01T20:17:32.795Z,61.91
2023-03-01T20:19:01.795Z,63.24
2023-03-01T20:20:56.882Z,63.21
2023-03-01T20:22:47.897Z,62.55
2023-03-01T20:24:33.424Z,56.22
2023-03-01T20:26:06.437Z,64.32
2023-03-01T20:28:01.823Z,75.97
2023-03-01T20:29:56.937Z,64.99
2023-03-01T20:31:52.016Z,59.51
2023-03-01T20:33:46.852Z,61.02
2023-03-01T20:35:41.895Z,59.93
2023-03-01T20:37:22.733Z,60.70
2023-03-01T20:38:56.130Z,58.83
2023-03-01T20:40:39.811Z,61.15
2023-03-01T20:42:15.945Z,63.09
2023-03-01T20:43:56.827Z,64.18
2023-03-01T20:45:42.886Z,62.67
2023-03-01T20:47:27.473Z,63.06
2023-03-01T20:49:01.425Z,66.42
2023-03-01T20:50:48.906Z,68.03
2023-03-01T20:52:36.657Z,71.68
2023-03-01T20:54:18.193Z,73.00
2023-03-01T20:55:40.570Z,85.40
2023-03-01T20:57:25.531Z,101.76
2023-03-01T20:59:10.446Z,106.42
2023-03-01T21:01:04.658Z,82.03
2023-03-01T21:02:49.600Z,71.92
2023-03-01T21:04:23.241Z,69.35
2023-03-01T21:06:08.524Z,66.85
2023-03-01T21:07:51.267Z,63.25
2023-03-01T21:09:26.798Z,62.44
2023-03-01T21:11:02.646Z,67.56
2023-03-01T21:12:26.954Z,82.07
2023-03-01T21:13:48.509Z,75.54
2023-03-01T21:15:29.073Z,71.60
2023-03-01T21:17:14.596Z,83.19
2023-03-01T21:19:03.774Z,121.98
2023-03-01T21:20:54.650Z,103.21
2023-03-01T21:22:35.964Z,73.25
2023-03-01T21:24:17.505Z,83.49
2023-03-01T21:25:55.414Z,99.67
2023-03-01T21:27:39.821Z,78.73
2023-03-01T21:29:11.702Z,78.83
2023-03-01T21:30:38.360Z,68.56
2023-03-01T21:32:23.721Z,59.87
2023-03-01T21:34:08.783Z,72.64
2023-03-01T21:35:51.596Z,84.94
2023-03-01T21:37:35.954Z,68.66
2023-03-01T21:39:21.205Z,61.94
2023-03-01T21:41:06.365Z,78.78
2023-03-01T21:42:48.686Z,79.62
2023-03-01T21:44:42.394Z,189.72
2023-03-01T21:46:18.939Z,132.79
2023-03-01T21:48:05.983Z,123.93
2023-03-01T21:49:40.294Z,98.69
2023-03-01T21:51:35.009Z,103.66